createdAt,value
2022-07-27T00:01:06.906Z,19.10
2022-07-27T00:03:34.461Z,19.00
2022-07-27T00:06:01.674Z,18.70
2022-07-27T00:08:28.841Z,18.70
2022-07-27T00:10:55.873Z,18.60
2022-07-27T00:13:23.120Z,18.60
2022-07-27T00:15:50.316Z,18.70
2022-07-27T00:18:17.559Z,18.70
2022-07-27T00:20:44.640Z,18.70
2022-07-27T00:23:11.752Z,18.80
2022-07-27T00:25:38.922Z,18.80
2022-07-27T00:28:06.443Z,19.00
2022-07-27T00:30:33.685Z,19.00
2022-07-27T00:33:00.750Z,19.10
2022-07-27T00:35:27.971Z,19.20
2022-07-27T00:37:55.020Z,19.20
2022-07-27T00:40:22.078Z,19.20
2022-07-27T00:42:49.148Z,19.20
2022-07-27T00:45:16.261Z,19.20
2022-07-27T00:47:43.242Z,19.10
2022-07-27T00:50:10.736Z,19.10
2022-07-27T00:52:38.971Z,19.10
2022-07-27T00:55:06.771Z,19.00
2022-07-27T00:57:33.882Z,19.00
2022-07-27T01:00:21.915Z,19.10
2022-07-27T01:02:51.929Z,19.10
2022-07-27T01:05:19.334Z,19.10
2022-07-27T01:07:49.385Z,19.10
2022-07-27T01:10:17.532Z,19.00
2022-07-27T01:12:45.822Z,18.90
2022-07-27T01:15:13.277Z,18.80
2022-07-27T01:17:40.428Z,18.80
2022-07-27T01:20:08.315Z,18.80
2022-07-27T01:22:35.750Z,18.80
2022-07-27T01:25:02.842Z,18.60
2022-07-27T01:27:29.894Z,18.70
2022-07-27T01:29:57.195Z,18.70
2022-07-27T01:32:24.360Z,18.60
2022-07-27T01:34:51.408Z,18.60
2022-07-27T01:37:18.457Z,18.70
2022-07-27T01:39:45.504Z,18.60
2022-07-27T01:42:12.805Z,18.60
2022-07-27T01:44:39.943Z,18.60
2022-07-27T01:47:14.021Z,18.60
2022-07-27T01:49:42.088Z,18.60
2022-07-27T01:52:09.114Z,18.50
2022-07-27T01:54:36.250Z,18.50
2022-07-27T01:57:03.320Z,18.50
2022-07-27T01:59:30.365Z,18.50
2022-07-27T02:01:57.434Z,18.50
2022-07-27T02:04:24.919Z,18.50
2022-07-27T02:06:52.188Z,18.60
2022-07-27T02:09:20.930Z,18.60
2022-07-27T02:12:06.470Z,18.70
2022-07-27T02:14:33.582Z,18.70
2022-07-27T02:17:00.832Z,18.60
2022-07-27T02:19:28.949Z,18.60
2022-07-27T02:21:55.911Z,18.60
2022-07-27T02:24:22.942Z,18.60
2022-07-27T02:26:50.066Z,18.50
2022-07-27T02:29:17.195Z,18.30
2022-07-27T02:31:44.246Z,18.30
2022-07-27T02:34:11.261Z,18.20
2022-07-27T02:36:38.337Z,18.30
2022-07-27T02:39:05.569Z,18.30
2022-07-27T02:41:32.673Z,18.20
2022-07-27T02:43:59.682Z,18.20
2022-07-27T02:46:26.935Z,18.00
2022-07-27T02:48:54.114Z,18.10
2022-07-27T02:51:21.218Z,18.00
2022-07-27T02:53:48.349Z,17.90
2022-07-27T02:56:15.376Z,17.90
2022-07-27T02:58:42.417Z,17.90
2022-07-27T03:01:09.468Z,17.90
2022-07-27T03:03:38.131Z,17.80
2022-07-27T03:06:08.511Z,17.70
2022-07-27T03:08:36.480Z,17.70
2022-07-27T03:11:04.162Z,17.60
2022-07-27T03:13:31.303Z,17.50
2022-07-27T03:15:58.458Z,17.40
2022-07-27T03:18:25.832Z,17.40
2022-07-27T03:20:53.086Z,17.40
2022-07-27T03:23:20.584Z,17.30
2022-07-27T03:25:47.593Z,17.30
2022-07-27T03:28:14.633Z,17.20
2022-07-27T03:30:41.774Z,17.20
2022-07-27T03:33:09.000Z,17.10
2022-07-27T03:35:35.977Z,17.00
2022-07-27T03:38:03.099Z,16.90
2022-07-27T03:40:32.936Z,16.70
2022-07-27T03:43:00.747Z,16.60
2022-07-27T03:45:27.845Z,16.50
2022-07-27T03:47:55.078Z,16.40
2022-07-27T03:50:22.750Z,16.30
2022-07-27T03:52:50.589Z,16.30
2022-07-27T03:55:18.038Z,16.20
2022-07-27T03:57:45.105Z,16.10
2022-07-27T04:00:14.115Z,16.00
2022-07-27T04:02:42.091Z,16.20
2022-07-27T04:05:10.335Z,16.30
2022-07-27T04:07:37.722Z,16.30
2022-07-27T04:10:05.289Z,16.40
2022-07-27T04:12:32.543Z,16.60
2022-07-27T04:14:59.584Z,16.60
2022-07-27T04:17:55.209Z,16.60
2022-07-27T04:20:14.719Z,16.70
2022-07-27T04:22:42.013Z,16.80
2022-07-27T04:25:09.666Z,17.00
2022-07-27T04:27:36.687Z,17.10
2022-07-27T04:30:09.206Z,17.10
2022-07-27T04:32:36.926Z,17.20
2022-07-27T04:35:04.359Z,17.20
2022-07-27T04:37:32.698Z,17.40
2022-07-27T04:40:00.960Z,17.40
2022-07-27T04:42:29.914Z,17.40
2022-07-27T04:44:57.601Z,17.40
2022-07-27T04:47:24.580Z,17.30
2022-07-27T04:49:51.592Z,17.30
2022-07-27T04:52:18.806Z,17.40
2022-07-27T04:54:53.419Z,17.40
2022-07-27T04:57:21.367Z,17.40
2022-07-27T04:59:48.423Z,17.30
2022-07-27T05:02:15.992Z,17.30
2022-07-27T05:04:43.046Z,17.30
2022-07-27T05:07:10.013Z,17.30
2022-07-27T05:09:37.077Z,17.30
2022-07-27T05:12:04.472Z,17.40
2022-07-27T05:14:31.421Z,17.40
2022-07-27T05:16:58.478Z,17.50
2022-07-27T05:19:39.979Z,17.60
2022-07-27T05:22:08.754Z,17.80
2022-07-27T05:24:35.809Z,18.00
2022-07-27T05:27:03.314Z,18.20
2022-07-27T05:29:30.741Z,18.40
2022-07-27T05:31:57.783Z,18.50
2022-07-27T05:34:25.108Z,18.40
2022-07-27T05:36:52.106Z,18.50
2022-07-27T05:39:19.349Z,18.50
2022-07-27T05:41:46.497Z,18.60
2022-07-27T05:44:16.088Z,18.70
2022-07-27T05:46:43.189Z,18.80
2022-07-27T05:49:11.812Z,18.90
2022-07-27T05:51:39.052Z,19.00
2022-07-27T05:54:06.168Z,19.00
2022-07-27T05:56:33.233Z,19.00
2022-07-27T05:59:07.972Z,19.10
2022-07-27T06:01:35.198Z,19.20
2022-07-27T06:04:02.358Z,19.00
2022-07-27T06:06:48.148Z,19.00
2022-07-27T06:09:15.628Z,19.10
2022-07-27T06:11:43.200Z,19.20
2022-07-27T06:14:11.081Z,19.20
2022-07-27T06:16:38.244Z,19.20
2022-07-27T06:19:06.187Z,19.20
2022-07-27T06:21:33.308Z,19.30
2022-07-27T06:24:00.338Z,19.30
2022-07-27T06:26:27.349Z,19.50
2022-07-27T06:28:58.832Z,19.60
2022-07-27T06:31:27.150Z,19.50
2022-07-27T06:33:56.286Z,19.60
2022-07-27T06:36:27.474Z,19.60
2022-07-27T06:38:54.435Z,19.60
2022-07-27T06:41:21.421Z,19.50
2022-07-27T06:43:48.529Z,19.50
2022-07-27T06:46:15.698Z,19.50
2022-07-27T06:48:42.974Z,19.60
2022-07-27T06:51:10.062Z,19.90
2022-07-27T06:53:37.504Z,20.20
2022-07-27T06:56:05.096Z,20.00
2022-07-27T06:58:33.676Z,20.20
2022-07-27T07:01:02.533Z,20.50
2022-07-27T07:03:29.992Z,20.70
2022-07-27T07:05:57.739Z,20.90
2022-07-27T07:08:24.786Z,21.00
2022-07-27T07:10:52.243Z,21.30
2022-07-27T07:13:19.473Z,21.40
2022-07-27T07:15:46.604Z,21.30
2022-07-27T07:18:14.525Z,21.10
2022-07-27T07:20:42.419Z,21.20
2022-07-27T07:23:09.901Z,21.60
2022-07-27T07:25:38.091Z,21.50
2022-07-27T07:28:07.265Z,21.60
2022-07-27T07:30:34.768Z,21.60
2022-07-27T07:33:02.311Z,21.80
2022-07-27T07:35:29.450Z,22.10
2022-07-27T07:37:56.465Z,22.00
2022-07-27T07:43:11.699Z,22.50
2022-07-27T07:45:50.834Z,22.40
2022-07-27T07:48:19.909Z,22.50
2022-07-27T07:50:52.464Z,22.40
2022-07-27T07:53:24.347Z,22.60
2022-07-27T07:55:52.857Z,22.80
2022-07-27T07:58:20.848Z,22.90
2022-07-27T08:00:48.418Z,23.50
2022-07-27T08:03:15.818Z,23.40
2022-07-27T08:05:43.052Z,24.10
2022-07-27T08:08:10.228Z,23.80
2022-07-27T08:10:37.595Z,23.90
2022-07-27T08:15:35.694Z,23.90
2022-07-27T08:18:07.109Z,23.90
2022-07-27T08:20:34.825Z,24.00
2022-07-27T08:23:01.870Z,24.00
2022-07-27T08:25:28.964Z,24.10
2022-07-27T08:27:56.361Z,23.90
2022-07-27T08:30:24.462Z,23.70
2022-07-27T08:32:55.169Z,23.70
2022-07-27T08:35:22.869Z,24.40
2022-07-27T08:37:49.924Z,24.90
2022-07-27T08:43:06.702Z,24.80
2022-07-27T08:45:34.236Z,24.70
2022-07-27T08:48:01.797Z,24.70
2022-07-27T08:50:30.587Z,25.10
2022-07-27T08:53:06.191Z,25.20
2022-07-27T08:55:43.993Z,24.70
2022-07-27T08:58:12.650Z,25.40
2022-07-27T09:00:44.838Z,25.30
2022-07-27T09:03:18.566Z,24.80
2022-07-27T09:05:47.931Z,24.70
2022-07-27T09:08:17.882Z,24.80
2022-07-27T09:10:45.001Z,25.00
2022-07-27T09:13:38.355Z,24.30
2022-07-27T09:16:19.698Z,24.40
2022-07-27T09:18:48.306Z,24.80
2022-07-27T09:21:21.058Z,24.90
2022-07-27T09:24:23.366Z,25.20
2022-07-27T09:27:05.840Z,25.20
2022-07-27T09:29:37.244Z,24.50
2022-07-27T09:32:17.746Z,25.00
2022-07-27T09:34:45.760Z,24.80
2022-07-27T09:37:27.510Z,24.80
2022-07-27T09:40:25.519Z,25.00
2022-07-27T09:44:12.094Z,25.00
2022-07-27T09:46:09.327Z,25.30
2022-07-27T09:48:37.113Z,25.00
2022-07-27T09:51:43.573Z,26.30
2022-07-27T09:53:56.946Z,25.30
2022-07-27T09:56:29.914Z,24.90
2022-07-27T09:58:59.664Z,24.90
2022-07-27T10:01:35.413Z,25.00
2022-07-27T10:04:05.603Z,25.00
2022-07-27T10:06:47.685Z,25.50
2022-07-27T10:09:20.934Z,26.50
2022-07-27T10:11:48.622Z,26.60
2022-07-27T10:14:16.476Z,26.70
2022-07-27T10:16:48.437Z,27.80
2022-07-27T10:19:33.535Z,28.50
2022-07-27T10:22:01.178Z,28.40
2022-07-27T10:24:39.342Z,28.90
2022-07-27T10:27:28.295Z,29.50
2022-07-27T10:29:57.069Z,28.50
2022-07-27T10:32:31.381Z,26.90
2022-07-27T10:34:59.907Z,26.90
2022-07-27T10:37:32.167Z,27.30
2022-07-27T10:40:23.917Z,27.40
2022-07-27T10:42:54.700Z,27.40
2022-07-27T10:45:22.435Z,27.00
2022-07-27T10:47:52.502Z,26.40
2022-07-27T10:50:22.653Z,26.00
2022-07-27T10:53:06.007Z,25.90
2022-07-27T10:55:44.544Z,26.00
2022-07-27T10:58:52.240Z,25.60
2022-07-27T11:01:20.472Z,25.40
2022-07-27T11:03:52.638Z,25.40
2022-07-27T11:07:15.065Z,26.10
2022-07-27T11:11:58.817Z,27.00
2022-07-27T11:14:31.250Z,26.90
2022-07-27T11:17:33.470Z,27.20
2022-07-27T11:19:59.230Z,27.10
2022-07-27T11:25:28.307Z,27.40
2022-07-27T11:27:55.360Z,27.50
2022-07-27T11:30:27.560Z,27.20
2022-07-27T11:32:55.432Z,27.50
2022-07-27T11:35:22.843Z,28.30
2022-07-27T11:38:05.723Z,28.10
2022-07-27T11:40:59.380Z,28.20
2022-07-27T11:43:45.589Z,28.90
2022-07-27T11:46:27.634Z,28.70
2022-07-27T11:49:26.702Z,28.60
2022-07-27T11:52:12.139Z,28.00
2022-07-27T11:54:41.635Z,27.80
2022-07-27T11:57:18.807Z,26.90
2022-07-27T11:59:46.456Z,26.80
2022-07-27T12:02:19.943Z,27.40
2022-07-27T12:04:49.926Z,27.80
2022-07-27T12:07:20.096Z,27.10
2022-07-27T12:09:58.931Z,27.70
2022-07-27T12:12:27.299Z,28.60
2022-07-27T12:14:59.290Z,29.50
2022-07-27T12:17:38.190Z,30.40
2022-07-27T12:20:11.383Z,30.10
2022-07-27T12:22:53.885Z,30.10
2022-07-27T12:25:29.867Z,29.00
2022-07-27T12:28:08.885Z,29.10
2022-07-27T12:30:41.242Z,28.80
2022-07-27T12:33:35.563Z,28.40
2022-07-27T12:36:07.966Z,29.50
2022-07-27T12:38:48.655Z,30.20
2022-07-27T12:41:26.994Z,28.50
2022-07-27T12:44:12.273Z,28.20
2022-07-27T12:46:59.446Z,27.80
2022-07-27T12:49:28.767Z,28.10
2022-07-27T12:52:06.239Z,29.60
2022-07-27T12:54:33.738Z,28.80
2022-07-27T12:57:01.291Z,28.80
2022-07-27T12:59:28.352Z,30.50
2022-07-27T13:01:56.978Z,32.10
2022-07-27T13:04:24.113Z,30.90
2022-07-27T13:06:51.310Z,31.20
2022-07-27T13:09:18.319Z,30.90
2022-07-27T13:11:48.064Z,30.50
2022-07-27T13:14:15.613Z,30.90
2022-07-27T13:16:42.716Z,30.30
2022-07-27T13:19:10.435Z,31.70
2022-07-27T13:21:37.970Z,31.20
2022-07-27T13:24:07.127Z,31.10
2022-07-27T13:26:34.191Z,29.30
2022-07-27T13:29:01.336Z,28.50
2022-07-27T13:31:33.463Z,28.80
2022-07-27T13:34:00.575Z,29.80
2022-07-27T13:36:27.617Z,30.80
2022-07-27T13:38:54.658Z,30.10
2022-07-27T13:41:22.338Z,30.10
2022-07-27T13:43:49.400Z,28.70
2022-07-27T13:46:16.518Z,29.80
2022-07-27T13:48:43.754Z,31.30
2022-07-27T13:51:10.893Z,30.20
2022-07-27T13:53:37.923Z,30.50
2022-07-27T13:56:07.381Z,32.00
2022-07-27T13:58:34.796Z,32.50
2022-07-27T14:01:07.135Z,32.20
2022-07-27T14:03:35.638Z,32.40
2022-07-27T14:06:03.120Z,30.90
2022-07-27T14:08:33.504Z,30.30
2022-07-27T14:11:00.573Z,30.30
2022-07-27T14:13:29.467Z,31.20
2022-07-27T14:15:56.562Z,31.70
2022-07-27T14:18:26.584Z,32.40
2022-07-27T14:20:54.814Z,32.10
2022-07-27T14:23:22.442Z,32.10
2022-07-27T14:25:51.473Z,30.80
2022-07-27T14:28:18.676Z,32.70
2022-07-27T14:30:46.554Z,32.80
2022-07-27T14:33:13.789Z,31.40
2022-07-27T14:35:42.572Z,31.00
2022-07-27T14:38:09.894Z,32.10
2022-07-27T14:40:37.354Z,32.00
2022-07-27T14:43:05.246Z,30.50
2022-07-27T14:45:44.403Z,30.00
2022-07-27T14:48:22.797Z,29.20
2022-07-27T14:50:52.335Z,28.40
2022-07-27T14:53:19.491Z,29.00
2022-07-27T14:55:46.514Z,29.20
2022-07-27T14:58:13.524Z,28.00
2022-07-27T15:00:40.609Z,27.70
2022-07-27T15:03:07.775Z,28.00
2022-07-27T15:05:49.740Z,28.30
2022-07-27T15:08:21.496Z,28.50
2022-07-27T15:10:49.048Z,28.70
2022-07-27T15:13:17.831Z,28.50
2022-07-27T15:15:48.447Z,27.90
2022-07-27T15:18:18.841Z,27.20
2022-07-27T15:20:46.373Z,27.30
2022-07-27T15:23:14.009Z,28.00
2022-07-27T15:25:41.041Z,28.10
2022-07-27T15:28:08.072Z,28.20
2022-07-27T15:30:38.662Z,28.00
2022-07-27T15:33:06.391Z,28.20
2022-07-27T15:35:33.489Z,28.00
2022-07-27T15:38:00.507Z,27.90
2022-07-27T15:40:41.812Z,27.70
2022-07-27T15:43:14.258Z,27.30
2022-07-27T15:45:45.466Z,27.60
2022-07-27T15:48:13.698Z,27.80
2022-07-27T15:50:43.233Z,27.90
2022-07-27T15:53:11.213Z,28.10
2022-07-27T15:55:38.365Z,28.10
2022-07-27T15:58:06.262Z,28.20
2022-07-27T16:00:39.595Z,28.30
2022-07-27T16:03:12.174Z,28.40
2022-07-27T16:05:41.869Z,29.40
2022-07-27T16:08:09.983Z,30.70
2022-07-27T16:10:38.421Z,31.60
2022-07-27T16:13:06.277Z,32.20
2022-07-27T16:15:53.000Z,32.30
2022-07-27T16:18:20.342Z,30.90
2022-07-27T16:20:47.541Z,30.90
2022-07-27T16:23:18.986Z,29.80
2022-07-27T16:26:07.967Z,29.80
2022-07-27T16:28:42.376Z,30.20
2022-07-27T16:31:12.266Z,30.30
2022-07-27T16:33:40.211Z,29.70
2022-07-27T16:36:08.282Z,30.30
2022-07-27T16:38:37.211Z,29.40
2022-07-27T16:41:07.391Z,29.40
2022-07-27T16:43:38.140Z,29.30
2022-07-27T16:46:10.263Z,29.70
2022-07-27T16:48:42.166Z,29.30
2022-07-27T16:51:12.037Z,29.20
2022-07-27T16:53:41.430Z,29.40
2022-07-27T16:56:09.260Z,29.20
2022-07-27T16:58:36.678Z,29.80
2022-07-27T17:01:04.638Z,30.60
2022-07-27T17:03:31.826Z,29.60
2022-07-27T17:06:02.171Z,28.10
2022-07-27T17:08:32.672Z,27.50
2022-07-27T17:11:02.409Z,27.00
2022-07-27T17:13:33.579Z,27.90
2022-07-27T17:16:06.167Z,28.50
2022-07-27T17:18:39.935Z,28.30
2022-07-27T17:21:12.610Z,28.50
2022-07-27T17:23:41.216Z,27.90
2022-07-27T17:26:09.664Z,27.40
2022-07-27T17:28:39.534Z,27.50
2022-07-27T17:31:09.422Z,28.20
2022-07-27T17:33:37.842Z,28.70
2022-07-27T17:36:08.375Z,28.20
2022-07-27T17:38:39.350Z,28.50
2022-07-27T17:41:06.410Z,28.00
2022-07-27T17:43:38.789Z,27.40
2022-07-27T17:46:06.665Z,27.60
2022-07-27T17:48:35.439Z,27.60
2022-07-27T17:51:03.285Z,27.30
2022-07-27T17:53:30.350Z,27.00
2022-07-27T17:55:57.489Z,27.00
2022-07-27T17:58:29.757Z,27.00
2022-07-27T18:00:57.434Z,27.00
2022-07-27T18:03:24.612Z,27.10
2022-07-27T18:05:51.970Z,26.90
2022-07-27T18:08:19.266Z,26.60
2022-07-27T18:10:46.433Z,26.50
2022-07-27T18:13:13.555Z,26.50
2022-07-27T18:15:50.825Z,26.40
2022-07-27T18:18:20.613Z,26.40
2022-07-27T18:20:52.030Z,26.40
2022-07-27T18:23:20.485Z,26.30
2022-07-27T18:25:48.503Z,25.80
2022-07-27T18:28:16.390Z,25.60
2022-07-27T18:30:47.947Z,25.50
2022-07-27T18:33:15.864Z,25.40
2022-07-27T18:35:43.692Z,25.30
2022-07-27T18:38:10.984Z,25.30
2022-07-27T18:40:43.112Z,25.20
2022-07-27T18:43:10.839Z,25.10
2022-07-27T18:45:45.198Z,25.00
2022-07-27T18:48:12.248Z,24.90
2022-07-27T18:50:40.389Z,25.00
2022-07-27T18:53:08.475Z,24.90
2022-07-27T18:55:36.163Z,24.70
2022-07-27T18:58:03.515Z,24.50
2022-07-27T19:00:31.063Z,24.30
2022-07-27T19:02:58.581Z,24.20
2022-07-27T19:05:40.670Z,24.10
2022-07-27T19:08:13.691Z,24.00
2022-07-27T19:10:42.578Z,23.90
2022-07-27T19:13:10.576Z,23.70
2022-07-27T19:15:37.997Z,23.50
2022-07-27T19:18:06.402Z,23.40
2022-07-27T19:20:33.857Z,23.20
2022-07-27T19:23:01.026Z,23.10
2022-07-27T19:25:30.380Z,23.00
2022-07-27T19:27:57.739Z,22.90
2022-07-27T19:30:24.955Z,22.80
2022-07-27T19:32:52.009Z,22.60
2022-07-27T19:35:19.065Z,22.60
2022-07-27T19:37:46.105Z,22.60
2022-07-27T19:40:43.378Z,22.60
2022-07-27T19:43:00.476Z,22.50
2022-07-27T19:45:27.465Z,22.40
2022-07-27T19:47:55.859Z,22.40
2022-07-27T19:50:26.593Z,22.50
2022-07-27T19:52:53.734Z,22.40
2022-07-27T19:55:20.718Z,22.50
2022-07-27T19:57:48.043Z,22.50
2022-07-27T20:00:15.800Z,22.50
2022-07-27T20:02:43.052Z,22.50
2022-07-27T20:05:10.844Z,22.40
2022-07-27T20:07:38.022Z,22.40
2022-07-27T20:10:06.687Z,22.30
2022-07-27T20:12:33.790Z,22.30
2022-07-27T20:15:01.025Z,22.30
2022-07-27T20:17:28.402Z,22.30
2022-07-27T20:19:55.475Z,22.10
2022-07-27T20:22:22.538Z,22.10
2022-07-27T20:24:49.586Z,22.10
2022-07-27T20:27:16.675Z,22.10
2022-07-27T20:29:43.672Z,22.00
2022-07-27T20:32:11.609Z,21.90
2022-07-27T20:34:38.756Z,21.80
2022-07-27T20:37:07.062Z,21.80
2022-07-27T20:39:34.137Z,21.90
2022-07-27T20:42:01.175Z,21.90
2022-07-27T20:44:28.226Z,21.90
2022-07-27T20:46:55.217Z,21.90
2022-07-27T20:49:23.068Z,21.90
2022-07-27T20:51:50.197Z,21.90
2022-07-27T20:54:17.234Z,21.90
2022-07-27T20:56:56.631Z,21.90
2022-07-27T20:59:24.138Z,21.70
2022-07-27T21:01:51.428Z,21.60
2022-07-27T21:04:22.158Z,21.50
2022-07-27T21:06:50.850Z,21.40
2022-07-27T21:09:18.801Z,21.40
2022-07-27T21:11:45.968Z,21.40
2022-07-27T21:14:13.184Z,21.40
2022-07-27T21:16:40.575Z,21.30
2022-07-27T21:19:07.786Z,21.20
2022-07-27T21:21:34.811Z,21.10
2022-07-27T21:24:17.877Z,21.00
2022-07-27T21:26:48.733Z,21.00
2022-07-27T21:29:16.603Z,21.00
2022-07-27T21:31:48.216Z,21.10
2022-07-27T21:34:19.046Z,21.10
2022-07-27T21:36:46.844Z,21.20
2022-07-27T21:39:13.924Z,21.20
2022-07-27T21:41:41.017Z,21.20
2022-07-27T21:44:08.187Z,21.20
2022-07-27T21:46:35.499Z,21.30
2022-07-27T21:49:02.786Z,21.20
2022-07-27T21:51:29.920Z,21.20
2022-07-27T21:53:57.093Z,21.10
2022-07-27T21:56:24.574Z,21.10
2022-07-27T21:58:51.864Z,21.00
2022-07-27T22:01:19.649Z,21.10
2022-07-27T22:03:47.069Z,21.00
2022-07-27T22:06:14.172Z,20.90
2022-07-27T22:08:41.504Z,21.00
2022-07-27T22:11:08.949Z,20.90
2022-07-27T22:13:36.004Z,20.90
2022-07-27T22:16:03.698Z,20.80
2022-07-27T22:18:30.866Z,20.70
2022-07-27T22:20:58.654Z,20.70
2022-07-27T22:23:25.769Z,20.60
2022-07-27T22:25:52.779Z,20.50
2022-07-27T22:28:20.534Z,20.60
2022-07-27T22:31:00.161Z,20.50
2022-07-27T22:33:38.477Z,20.50
2022-07-27T22:36:06.999Z,20.50
2022-07-27T22:38:34.010Z,20.40
2022-07-27T22:41:01.691Z,20.30
2022-07-27T22:43:28.722Z,20.40
2022-07-27T22:45:57.424Z,20.50
2022-07-27T22:48:24.502Z,20.40
2022-07-27T22:50:51.862Z,20.30
2022-07-27T22:53:18.924Z,20.30
2022-07-27T22:55:45.926Z,20.20
2022-07-27T22:58:13.215Z,20.20
2022-07-27T23:00:40.325Z,20.10
2022-07-27T23:03:08.005Z,20.10
2022-07-27T23:05:35.221Z,20.00
2022-07-27T23:08:02.316Z,20.00
2022-07-27T23:10:47.870Z,20.20
2022-07-27T23:13:16.663Z,20.00
2022-07-27T23:15:44.701Z,19.90
2022-07-27T23:18:12.711Z,19.80
2022-07-27T23:20:40.525Z,19.90
2022-07-27T23:23:15.489Z,20.00
2022-07-27T23:25:45.039Z,19.70
2022-07-27T23:28:12.480Z,19.70
2022-07-27T23:30:39.679Z,19.60
2022-07-27T23:33:06.978Z,19.70
2022-07-27T23:35:34.260Z,19.80
2022-07-27T23:38:01.550Z,19.70
2022-07-27T23:40:28.615Z,19.80
2022-07-27T23:42:55.679Z,19.70
2022-07-27T23:45:22.710Z,19.70
2022-07-27T23:47:49.917Z,19.60
2022-07-27T23:50:17.272Z,19.60
2022-07-27T23:52:44.631Z,19.50
2022-07-27T23:55:11.853Z,19.40
2022-07-27T23:57:38.879Z,19.40
